Duwamish, Washington
Current Conditions -  °F | °C
As of 10:53 AM on Tuesday 21 Oct 2014 (Local Time) from KSEA Reporting Station
Broken Clouds Broken Clouds  
Wind Chill: 58°   Ceiling: 7000
Heat Index: 58°   Visibility: 10mi
Dew Point: 49°   Wind: 12mph
Humidity: 72%   Direction: 190°S
Pressure: 29.93"   Gusts: NA
Location:  47.4488°N, 122.28°W
Report Text: KSEA 211753Z 19010KT 10SM SCT050 BKN070 BKN200 14/09 A2993 RMK AO2 SLP141 60000 T01440094 10150 20117 51015
Loading
Personal Weather Stations






























Interactive Weather Map
Tropical Storm Tracking
New forecast layout! Learn more

10-Day Weather Forecast

Advertisements
Track Severe Weather on mobile